createdAt,value
2022-09-04T00:01:24.302Z,20.30
2022-09-04T00:04:11.997Z,20.36
2022-09-04T00:06:47.467Z,20.19
2022-09-04T00:09:49.535Z,20.28
2022-09-04T00:12:26.732Z,20.19
2022-09-04T00:15:15.371Z,20.19
2022-09-04T00:18:02.705Z,20.24
2022-09-04T00:20:47.077Z,20.10
2022-09-04T00:26:13.904Z,20.13
2022-09-04T00:28:49.624Z,20.15
2022-09-04T00:31:38.655Z,20.12
2022-09-04T00:34:24.933Z,19.96
2022-09-04T00:36:58.330Z,19.91
2022-09-04T00:39:31.263Z,19.93
2022-09-04T00:42:15.416Z,19.89
2022-09-04T00:45:04.721Z,19.76
2022-09-04T00:47:40.607Z,19.72
2022-09-04T00:50:21.297Z,19.62
2022-09-04T00:52:59.885Z,19.70
2022-09-04T00:55:44.321Z,19.58
2022-09-04T00:58:47.843Z,19.60
2022-09-04T01:01:26.491Z,19.60
2022-09-04T01:04:20.623Z,19.74
2022-09-04T01:07:12.765Z,19.81
2022-09-04T01:10:04.906Z,19.64
2022-09-04T01:12:40.714Z,19.71
2022-09-04T01:15:18.417Z,19.83
2022-09-04T01:18:06.536Z,19.49
2022-09-04T01:20:48.344Z,19.49
2022-09-04T01:23:26.961Z,19.64
2022-09-04T01:26:20.407Z,19.61
2022-09-04T01:28:53.883Z,19.59
2022-09-04T01:31:41.715Z,19.59
2022-09-04T01:34:20.223Z,19.76
2022-09-04T01:37:01.694Z,19.78
2022-09-04T01:39:34.744Z,19.68
2022-09-04T01:42:11.822Z,19.56
2022-09-04T01:44:41.589Z,19.61
2022-09-04T01:47:32.294Z,19.61
2022-09-04T01:50:10.654Z,19.56
2022-09-04T01:52:52.114Z,19.49
2022-09-04T01:55:36.883Z,19.58
2022-09-04T01:58:13.594Z,19.65
2022-09-04T02:00:49.407Z,19.52
2022-09-04T02:03:27.575Z,19.41
2022-09-04T02:06:24.045Z,19.41
2022-09-04T02:09:11.567Z,19.48
2022-09-04T02:11:45.161Z,19.43
2022-09-04T02:14:34.224Z,19.31
2022-09-04T02:17:12.331Z,19.41
2022-09-04T02:20:00.184Z,19.54
2022-09-04T02:22:40.419Z,19.38
2022-09-04T02:25:32.183Z,19.36
2022-09-04T02:28:23.282Z,19.33
2022-09-04T02:31:04.942Z,19.23
2022-09-04T02:33:55.633Z,19.41
2022-09-04T02:36:46.074Z,19.31
2022-09-04T02:39:32.350Z,19.27
2022-09-04T02:42:24.090Z,19.09
2022-09-04T02:45:19.209Z,19.09
2022-09-04T02:47:52.026Z,19.27
2022-09-04T02:50:55.951Z,19.27
2022-09-04T02:53:31.460Z,19.04
2022-09-04T02:56:15.860Z,18.90
2022-09-04T02:58:57.654Z,18.86
2022-09-04T03:01:39.424Z,18.85
2022-09-04T03:04:20.863Z,18.81
2022-09-04T03:07:05.643Z,18.78
2022-09-04T03:09:53.016Z,18.71
2022-09-04T03:12:31.387Z,18.59
2022-09-04T03:15:04.194Z,18.60
2022-09-04T03:17:48.567Z,18.47
2022-09-04T03:20:23.708Z,18.52
2022-09-04T03:23:08.075Z,18.48
2022-09-04T03:25:46.681Z,18.33
2022-09-04T03:28:31.065Z,18.38
2022-09-04T03:31:02.980Z,18.36
2022-09-04T03:33:35.843Z,18.54
2022-09-04T03:36:11.200Z,18.36
2022-09-04T03:39:06.077Z,18.11
2022-09-04T03:42:02.512Z,18.20
2022-09-04T03:44:52.531Z,18.23
2022-09-04T03:47:28.449Z,18.31
2022-09-04T03:50:06.566Z,18.36
2022-09-04T03:52:39.695Z,18.17
2022-09-04T03:55:34.257Z,18.20
2022-09-04T03:58:15.673Z,18.12
2022-09-04T04:01:09.879Z,18.29
2022-09-04T04:03:54.553Z,18.27
2022-09-04T04:06:38.752Z,18.26
2022-09-04T04:09:28.781Z,18.31
2022-09-04T04:12:08.338Z,18.33
2022-09-04T04:14:59.213Z,18.38
2022-09-04T04:17:37.612Z,18.28
2022-09-04T04:20:15.800Z,18.17
2022-09-04T04:22:53.993Z,18.19
2022-09-04T04:25:49.891Z,18.24
2022-09-04T04:28:24.069Z,18.22
2022-09-04T04:30:56.400Z,18.15
2022-09-04T04:33:51.321Z,18.19
2022-09-04T04:36:32.809Z,18.22
2022-09-04T04:39:30.295Z,18.15
2022-09-04T04:42:22.754Z,18.05
2022-09-04T04:45:35.628Z,18.13
2022-09-04T04:48:16.144Z,18.13
2022-09-04T04:50:49.553Z,18.20
2022-09-04T04:53:34.115Z,18.25
2022-09-04T04:59:04.416Z,18.15
2022-09-04T05:02:04.313Z,18.03
2022-09-04T05:04:54.955Z,18.01
2022-09-04T05:07:43.989Z,18.14
2022-09-04T05:10:23.600Z,18.12
2022-09-04T05:12:58.856Z,18.15
2022-09-04T05:15:52.990Z,18.15
2022-09-04T05:18:39.122Z,18.36
2022-09-04T05:21:26.519Z,18.38
2022-09-04T05:23:59.345Z,18.28
2022-09-04T05:26:46.312Z,18.21
2022-09-04T05:29:16.574Z,18.25
2022-09-04T05:32:03.950Z,18.26
2022-09-04T05:34:39.261Z,18.22
2022-09-04T05:37:14.821Z,18.21
2022-09-04T05:42:57.017Z,18.47
2022-09-04T05:45:46.220Z,18.58
2022-09-04T05:48:45.757Z,18.45
2022-09-04T05:51:22.499Z,18.59
2022-09-04T05:54:04.243Z,18.72
2022-09-04T05:56:39.869Z,18.75
2022-09-04T05:59:43.937Z,18.68
2022-09-04T06:02:48.232Z,18.49
2022-09-04T06:05:21.308Z,18.52
2022-09-04T06:08:10.723Z,18.61
2022-09-04T06:10:46.304Z,18.71
2022-09-04T06:13:21.353Z,18.74
2022-09-04T06:16:00.083Z,18.83
2022-09-04T06:18:32.929Z,18.74
2022-09-04T06:21:11.425Z,18.97
2022-09-04T06:24:16.945Z,19.04
2022-09-04T06:26:55.993Z,19.00
2022-09-04T06:29:47.599Z,19.26
2022-09-04T06:32:35.187Z,19.48
2022-09-04T06:35:24.383Z,19.48
2022-09-04T06:38:26.514Z,19.57
2022-09-04T06:41:16.960Z,19.74
2022-09-04T06:43:55.881Z,19.83
2022-09-04T06:46:34.622Z,19.83
2022-09-04T06:49:13.466Z,19.83
2022-09-04T06:52:08.564Z,20.08
2022-09-04T06:54:48.430Z,20.33
2022-09-04T06:57:45.363Z,20.33
2022-09-04T07:00:19.862Z,20.18
2022-09-04T07:03:07.245Z,20.56
2022-09-04T07:05:48.502Z,20.56
2022-09-04T07:08:26.950Z,20.82
2022-09-04T07:11:17.748Z,20.92
2022-09-04T07:14:03.214Z,21.12
2022-09-04T07:16:38.973Z,21.21
2022-09-04T07:19:23.556Z,21.48
2022-09-04T07:22:05.115Z,21.40
2022-09-04T07:24:38.615Z,21.49
2022-09-04T07:27:23.281Z,21.39
2022-09-04T07:29:58.536Z,21.66
2022-09-04T07:32:43.218Z,21.88
2022-09-04T07:35:36.264Z,22.21
2022-09-04T07:38:17.282Z,22.52
2022-09-04T07:40:53.203Z,22.65
2022-09-04T07:43:40.649Z,22.64
2022-09-04T07:46:14.648Z,22.86
2022-09-04T07:48:59.281Z,23.01
2022-09-04T07:51:34.771Z,23.12
2022-09-04T07:57:27.293Z,23.83
2022-09-04T08:00:10.209Z,23.83
2022-09-04T08:03:11.870Z,24.09
2022-09-04T08:06:06.556Z,24.08
2022-09-04T08:08:48.805Z,24.34
2022-09-04T08:11:45.411Z,24.28
2022-09-04T08:14:32.891Z,24.33
2022-09-04T08:17:33.171Z,24.58
2022-09-04T08:20:06.001Z,24.67
2022-09-04T08:22:38.813Z,25.08
2022-09-04T08:25:32.232Z,25.74
2022-09-04T08:28:15.423Z,25.74
2022-09-04T08:30:50.903Z,25.67
2022-09-04T08:33:29.427Z,25.68
2022-09-04T08:36:14.083Z,25.61
2022-09-04T08:38:54.229Z,25.68
2022-09-04T08:41:48.865Z,25.83
2022-09-04T08:44:51.949Z,26.07
2022-09-04T08:47:55.946Z,26.24
2022-09-04T08:50:34.306Z,26.72
2022-09-04T08:53:19.201Z,26.72
2022-09-04T08:56:08.323Z,26.71
2022-09-04T08:59:09.683Z,26.45
2022-09-04T09:01:57.292Z,26.52
2022-09-04T09:04:56.755Z,26.90
2022-09-04T09:07:41.495Z,26.92
2022-09-04T09:10:36.214Z,27.24
2022-09-04T09:13:11.736Z,27.35
2022-09-04T09:15:46.966Z,27.14
2022-09-04T09:18:25.646Z,27.17
2022-09-04T09:21:10.215Z,27.40
2022-09-04T09:23:54.595Z,27.52
2022-09-04T09:26:31.781Z,27.93
2022-09-04T09:29:20.014Z,27.99
2022-09-04T09:32:07.777Z,27.68
2022-09-04T09:34:59.647Z,28.17
2022-09-04T09:37:47.430Z,28.21
2022-09-04T09:40:34.172Z,27.90
2022-09-04T09:43:09.528Z,28.36
2022-09-04T09:45:58.523Z,28.91
2022-09-04T09:48:58.706Z,29.34
2022-09-04T09:51:46.499Z,28.99
2022-09-04T09:54:19.270Z,29.30
2022-09-04T09:57:11.007Z,29.30
2022-09-04T10:00:07.407Z,28.92
2022-09-04T10:03:09.630Z,29.38
2022-09-04T10:06:01.260Z,29.31
2022-09-04T10:08:50.510Z,29.63
2022-09-04T10:11:48.703Z,29.65
2022-09-04T10:14:53.619Z,29.73
2022-09-04T10:17:45.639Z,30.19
2022-09-04T10:20:29.962Z,30.03
2022-09-04T10:23:27.014Z,30.02
2022-09-04T10:26:11.371Z,30.13
2022-09-04T10:29:10.003Z,30.48
2022-09-04T10:31:42.827Z,29.94
2022-09-04T10:34:52.140Z,29.65
2022-09-04T10:37:49.051Z,29.74
2022-09-04T10:40:44.496Z,29.78
2022-09-04T10:43:32.415Z,29.93
2022-09-04T10:46:23.679Z,30.19
2022-09-04T10:49:17.092Z,29.73
2022-09-04T10:51:56.246Z,29.78
2022-09-04T10:54:45.306Z,30.06
2022-09-04T10:57:21.424Z,30.83
2022-09-04T11:00:07.596Z,30.57
2022-09-04T11:03:00.151Z,30.11
2022-09-04T11:05:51.917Z,29.98
2022-09-04T11:08:59.171Z,29.69
2022-09-04T11:11:35.177Z,29.53
2022-09-04T11:14:18.623Z,29.41
2022-09-04T11:16:57.138Z,29.34
2022-09-04T11:19:43.521Z,29.66
2022-09-04T11:22:19.843Z,29.51
2022-09-04T11:25:11.874Z,29.72
2022-09-04T11:28:07.185Z,29.83
2022-09-04T11:31:04.655Z,29.84
2022-09-04T11:33:49.773Z,29.84
2022-09-04T11:36:41.601Z,30.18
2022-09-04T11:39:38.834Z,30.59
2022-09-04T11:42:45.271Z,30.75
2022-09-04T11:45:48.102Z,31.26
2022-09-04T11:48:43.271Z,31.20
2022-09-04T11:51:18.976Z,31.39
2022-09-04T11:54:08.049Z,31.63
2022-09-04T11:57:10.529Z,31.30
2022-09-04T11:59:43.909Z,31.18
2022-09-04T12:02:47.730Z,30.73
2022-09-04T12:05:47.479Z,31.05
2022-09-04T12:08:40.691Z,31.04
2022-09-04T12:11:15.137Z,30.81
2022-09-04T12:13:51.904Z,30.87
2022-09-04T12:16:33.366Z,30.85
2022-09-04T12:19:34.180Z,30.85
2022-09-04T12:22:22.601Z,30.78
2022-09-04T12:25:12.973Z,30.59
2022-09-04T12:27:57.645Z,30.36
2022-09-04T12:30:47.990Z,30.34
2022-09-04T12:33:39.887Z,30.28
2022-09-04T12:36:22.334Z,30.28
2022-09-04T12:39:11.828Z,30.40
2022-09-04T12:41:50.310Z,30.63
2022-09-04T12:44:34.674Z,30.63
2022-09-04T12:47:07.491Z,31.06
2022-09-04T12:49:42.985Z,31.30
2022-09-04T12:52:34.379Z,31.72
2022-09-04T12:55:22.912Z,31.89
2022-09-04T12:58:11.557Z,32.07
2022-09-04T13:00:48.783Z,31.85
2022-09-04T13:03:25.313Z,31.93
2022-09-04T13:06:15.315Z,32.28
2022-09-04T13:09:10.283Z,32.17
2022-09-04T13:12:01.968Z,31.51
2022-09-04T13:14:34.507Z,31.65
2022-09-04T13:17:14.568Z,31.28
2022-09-04T13:20:00.385Z,31.64
2022-09-04T13:22:46.301Z,31.58
2022-09-04T13:25:30.491Z,31.93
2022-09-04T13:28:27.317Z,31.83
2022-09-04T13:31:08.892Z,31.64
2022-09-04T13:34:00.500Z,31.79
2022-09-04T13:36:52.658Z,31.90
2022-09-04T13:39:40.046Z,31.76
2022-09-04T13:42:23.187Z,32.04
2022-09-04T13:45:10.658Z,32.44
2022-09-04T13:47:58.408Z,32.24
2022-09-04T13:50:37.010Z,32.01
2022-09-04T13:53:27.584Z,32.01
2022-09-04T13:56:00.663Z,31.79
2022-09-04T13:58:39.629Z,31.14
2022-09-04T14:01:19.806Z,31.38
2022-09-04T14:03:52.710Z,31.40
2022-09-04T14:06:25.550Z,31.20
2022-09-04T14:09:04.794Z,30.92
2022-09-04T14:11:50.660Z,31.20
2022-09-04T14:14:48.487Z,31.50
2022-09-04T14:17:25.519Z,31.87
2022-09-04T14:20:12.023Z,31.99
2022-09-04T14:22:56.999Z,31.85
2022-09-04T14:25:32.393Z,32.03
2022-09-04T14:28:16.843Z,31.90
2022-09-04T14:31:01.462Z,31.62
2022-09-04T14:33:53.456Z,31.79
2022-09-04T14:36:26.446Z,31.80
2022-09-04T14:39:14.649Z,31.92
2022-09-04T14:42:12.208Z,31.71
2022-09-04T14:45:20.528Z,31.97
2022-09-04T14:50:36.598Z,31.80
2022-09-04T14:53:09.365Z,31.71
2022-09-04T14:55:45.460Z,31.78
2022-09-04T14:58:31.252Z,31.42
2022-09-04T15:01:07.026Z,31.59
2022-09-04T15:03:42.615Z,31.53
2022-09-04T15:06:23.865Z,31.78
2022-09-04T15:08:53.705Z,31.62
2022-09-04T15:11:32.461Z,31.82
2022-09-04T15:14:12.280Z,31.72
2022-09-04T15:16:46.668Z,31.28
2022-09-04T15:19:35.731Z,31.28
2022-09-04T15:22:08.545Z,31.48
2022-09-04T15:24:41.342Z,31.30
2022-09-04T15:27:27.269Z,31.40
2022-09-04T15:30:08.555Z,31.05
2022-09-04T15:32:41.806Z,31.27
2022-09-04T15:35:32.736Z,31.01
2022-09-04T15:38:21.984Z,30.79
2022-09-04T15:41:15.722Z,31.00
2022-09-04T15:43:29.631Z,30.89
2022-09-04T15:46:02.206Z,31.23
2022-09-04T15:48:48.644Z,31.25
2022-09-04T15:51:39.000Z,31.64
2022-09-04T15:54:15.326Z,31.45
2022-09-04T15:56:53.733Z,31.48
2022-09-04T15:59:32.012Z,31.83
2022-09-04T16:02:31.547Z,31.95
2022-09-04T16:05:14.847Z,31.62
2022-09-04T16:07:47.642Z,31.60
2022-09-04T16:10:27.790Z,31.69
2022-09-04T16:13:06.361Z,31.21
2022-09-04T16:15:41.949Z,31.91
2022-09-04T16:18:25.051Z,31.88
2022-09-04T16:21:00.966Z,31.93
2022-09-04T16:23:38.146Z,31.80
2022-09-04T16:26:13.940Z,31.96
2022-09-04T16:28:50.317Z,32.14
2022-09-04T16:31:31.987Z,31.37
2022-09-04T16:34:04.857Z,30.92
2022-09-04T16:36:50.875Z,31.24
2022-09-04T16:39:32.769Z,31.50
2022-09-04T16:42:14.573Z,31.61
2022-09-04T16:45:05.224Z,31.22
2022-09-04T16:48:10.682Z,31.21
2022-09-04T16:51:09.916Z,30.72
2022-09-04T16:53:50.520Z,30.76
2022-09-04T16:56:36.499Z,30.76
2022-09-04T16:59:27.411Z,30.74
2022-09-04T17:02:06.111Z,30.18
2022-09-04T17:04:40.208Z,30.18
2022-09-04T17:07:16.351Z,29.99
2022-09-04T17:10:01.617Z,29.71
2022-09-04T17:12:43.357Z,29.71
2022-09-04T17:15:53.214Z,30.16
2022-09-04T17:18:23.928Z,30.57
2022-09-04T17:23:43.046Z,30.92
2022-09-04T17:29:03.639Z,31.26
2022-09-04T17:29:16.891Z,31.29
2022-09-04T17:31:58.661Z,31.06
2022-09-04T17:40:38.903Z,30.73
2022-09-04T17:40:39.970Z,31.31
2022-09-04T17:40:55.962Z,30.77
2022-09-04T17:43:19.153Z,30.68
2022-09-04T17:45:35.203Z,30.42
2022-09-04T17:48:22.229Z,29.84
2022-09-04T17:50:52.449Z,29.54
2022-09-04T17:53:33.795Z,29.29
2022-09-04T17:55:59.393Z,28.86
2022-09-04T17:58:39.440Z,29.04
2022-09-04T18:01:15.960Z,28.94
2022-09-04T18:04:21.262Z,28.83
2022-09-04T18:06:23.762Z,28.65
2022-09-04T18:08:57.133Z,28.48
2022-09-04T18:11:32.402Z,28.28
2022-09-04T18:14:18.454Z,28.05
2022-09-04T18:17:11.619Z,27.89
2022-09-04T18:19:47.190Z,27.65
2022-09-04T18:22:33.520Z,27.58
2022-09-04T18:25:17.273Z,27.37
2022-09-04T18:27:48.927Z,27.26
2022-09-04T18:36:15.596Z,27.13
2022-09-04T18:37:07.618Z,26.94
2022-09-04T18:37:17.023Z,26.90
2022-09-04T18:38:38.242Z,26.58
2022-09-04T18:50:29.963Z,26.11
2022-09-04T18:50:40.368Z,26.11
2022-09-04T18:50:42.919Z,25.94
2022-09-04T18:51:57.945Z,25.94
2022-09-04T18:54:37.854Z,25.90
2022-09-04T18:57:26.729Z,25.53
2022-09-04T19:00:09.407Z,25.73
2022-09-04T19:03:07.517Z,25.59
2022-09-04T19:05:44.952Z,25.38
2022-09-04T19:11:20.388Z,25.17
2022-09-04T19:13:48.858Z,25.09
2022-09-04T19:16:27.427Z,25.09
2022-09-04T19:19:03.923Z,25.15
2022-09-04T19:21:58.373Z,24.87
2022-09-04T19:24:41.489Z,24.78
2022-09-04T19:27:21.982Z,24.61
2022-09-04T19:29:56.990Z,24.54
2022-09-04T19:32:31.560Z,24.49
2022-09-04T19:35:07.016Z,24.49
2022-09-04T19:39:06.812Z,24.44
2022-09-04T19:45:55.730Z,24.70
2022-09-04T19:46:05.541Z,24.38
2022-09-04T19:46:19.915Z,24.28
2022-09-04T19:49:06.414Z,24.10
2022-09-04T19:53:31.647Z,24.13
2022-09-04T19:54:16.658Z,23.93
2022-09-04T19:57:31.329Z,23.65
2022-09-04T19:59:29.214Z,23.65
2022-09-04T20:02:03.636Z,23.57
2022-09-04T20:04:41.793Z,23.56
2022-09-04T20:07:14.828Z,23.70
2022-09-04T20:09:50.466Z,23.71
2022-09-04T20:12:23.176Z,23.73
2022-09-04T20:14:58.725Z,23.61
2022-09-04T20:17:55.568Z,23.43
2022-09-04T20:20:33.943Z,23.26
2022-09-04T20:23:34.904Z,23.26
2022-09-04T20:25:50.144Z,23.40
2022-09-04T20:28:37.576Z,23.29
2022-09-04T20:31:30.316Z,23.37
2022-09-04T20:33:48.190Z,23.31
2022-09-04T20:36:22.659Z,23.12
2022-09-04T20:38:58.150Z,23.04
2022-09-04T20:41:47.248Z,23.03
2022-09-04T20:44:34.264Z,22.87
2022-09-04T20:52:41.636Z,22.81
2022-09-04T20:52:54.895Z,22.81
2022-09-04T20:53:07.001Z,22.78
2022-09-04T20:55:31.059Z,22.78
2022-09-04T21:03:11.709Z,22.73
2022-09-04T21:03:23.994Z,22.72
2022-09-04T21:03:28.025Z,22.60
2022-09-04T21:05:50.660Z,22.46
2022-09-04T21:08:33.998Z,22.46
2022-09-04T21:11:39.403Z,22.30
2022-09-04T21:13:53.550Z,22.30
2022-09-04T21:16:32.107Z,22.28
2022-09-04T21:19:27.638Z,22.44
2022-09-04T21:22:10.001Z,22.30
2022-09-04T21:25:09.765Z,22.36
2022-09-04T21:27:57.115Z,22.24
2022-09-04T21:30:56.708Z,22.21
2022-09-04T21:33:47.206Z,22.14
2022-09-04T21:36:26.450Z,22.19
2022-09-04T21:39:09.344Z,22.04
2022-09-04T21:41:51.012Z,22.06
2022-09-04T21:44:34.413Z,22.06
2022-09-04T21:47:08.915Z,22.03
2022-09-04T21:49:44.655Z,22.02
2022-09-04T21:52:55.821Z,22.07
2022-09-04T22:01:22.266Z,22.06
2022-09-04T22:02:35.994Z,21.95
2022-09-04T22:02:43.812Z,21.55
2022-09-04T22:03:53.716Z,21.55
2022-09-04T22:07:56.330Z,21.64
2022-09-04T22:13:34.732Z,21.41
2022-09-04T22:13:40.553Z,21.41
2022-09-04T22:15:08.452Z,21.44
2022-09-04T22:17:58.777Z,21.50
2022-09-04T22:20:52.345Z,21.43
2022-09-04T22:23:44.719Z,21.50
2022-09-04T22:26:35.202Z,21.39
2022-09-04T22:29:32.166Z,21.38
2022-09-04T22:32:20.471Z,21.44
2022-09-04T22:35:01.754Z,21.38
2022-09-04T22:37:49.304Z,21.35
2022-09-04T22:40:43.099Z,21.31
2022-09-04T22:43:13.338Z,21.27
2022-09-04T22:45:46.142Z,21.03
2022-09-04T22:48:31.004Z,20.93
2022-09-04T22:51:27.570Z,21.05
2022-09-04T22:54:28.698Z,21.02
2022-09-04T22:57:10.289Z,21.08
2022-09-04T22:59:54.497Z,21.10
2022-09-04T23:03:08.286Z,20.80
2022-09-04T23:06:11.341Z,21.01
2022-09-04T23:13:49.354Z,20.88
2022-09-04T23:14:01.020Z,20.98
2022-09-04T23:14:31.315Z,20.93
2022-09-04T23:17:09.802Z,20.84
2022-09-04T23:23:36.405Z,20.98
2022-09-04T23:26:35.203Z,20.87
2022-09-04T23:26:44.995Z,20.93
2022-09-04T23:28:28.090Z,20.85
2022-09-04T23:31:00.101Z,20.93
2022-09-04T23:33:52.528Z,20.96
2022-09-04T23:36:55.088Z,20.78
2022-09-04T23:39:36.859Z,20.87
2022-09-04T23:42:29.408Z,20.76
2022-09-04T23:45:33.296Z,20.70
2022-09-04T23:48:24.394Z,20.70
2022-09-04T23:51:02.939Z,20.74
2022-09-04T23:53:41.909Z,20.60
2022-09-04T23:56:21.975Z,20.66
2022-09-04T23:59:38.251Z,20.80
